createdAt,value
2019-05-19T00:01:12.466Z,17.00
2019-05-19T00:03:43.282Z,17.00
2019-05-19T00:06:13.538Z,17.00
2019-05-19T00:08:44.038Z,17.00
2019-05-19T00:11:14.556Z,16.90
2019-05-19T00:13:44.817Z,16.90
2019-05-19T00:16:15.126Z,16.90
2019-05-19T00:18:45.636Z,16.90
2019-05-19T00:21:15.863Z,16.80
2019-05-19T00:23:46.267Z,16.80
2019-05-19T00:26:16.543Z,16.80
2019-05-19T00:28:46.856Z,16.80
2019-05-19T00:31:17.244Z,16.70
2019-05-19T00:33:47.501Z,16.80
2019-05-19T00:36:19.711Z,16.70
2019-05-19T00:38:49.899Z,16.60
2019-05-19T00:41:20.263Z,16.60
2019-05-19T00:43:50.829Z,16.60
2019-05-19T00:46:21.279Z,16.60
2019-05-19T00:48:51.607Z,16.50
2019-05-19T00:51:22.399Z,16.50
2019-05-19T00:53:52.747Z,16.50
2019-05-19T00:56:23.539Z,16.50
2019-05-19T00:58:57.684Z,16.40
2019-05-19T01:01:27.927Z,16.40
2019-05-19T01:03:58.181Z,16.40
2019-05-19T01:06:28.441Z,16.40
2019-05-19T01:08:58.892Z,16.40
2019-05-19T01:11:29.123Z,16.50
2019-05-19T01:14:01.379Z,16.40
2019-05-19T01:16:31.647Z,16.40
2019-05-19T01:19:01.985Z,16.40
2019-05-19T01:21:33.309Z,16.40
2019-05-19T01:24:03.587Z,16.40
2019-05-19T01:26:33.848Z,16.40
2019-05-19T01:29:04.100Z,16.40
2019-05-19T01:31:34.441Z,16.40
2019-05-19T01:34:04.708Z,16.50
2019-05-19T01:36:35.324Z,16.40
2019-05-19T01:39:06.597Z,16.40
2019-05-19T01:41:37.005Z,16.40
2019-05-19T01:44:07.280Z,16.30
2019-05-19T01:46:38.604Z,16.30
2019-05-19T01:49:08.844Z,16.30
2019-05-19T01:51:39.222Z,16.30
2019-05-19T01:54:09.465Z,16.30
2019-05-19T01:56:39.714Z,16.20
2019-05-19T01:59:10.002Z,16.20
2019-05-19T02:01:40.358Z,16.20
2019-05-19T02:04:10.606Z,16.20
2019-05-19T02:06:40.944Z,16.10
2019-05-19T02:09:11.580Z,16.10
2019-05-19T02:11:41.876Z,16.10
2019-05-19T02:14:12.206Z,16.20
2019-05-19T02:16:42.510Z,16.20
2019-05-19T02:19:13.074Z,16.10
2019-05-19T02:21:43.356Z,16.10
2019-05-19T02:24:13.604Z,16.20
2019-05-19T02:26:45.582Z,16.10
2019-05-19T02:29:15.874Z,16.10
2019-05-19T02:31:46.163Z,16.10
2019-05-19T02:34:16.472Z,16.10
2019-05-19T02:36:47.233Z,16.10
2019-05-19T02:39:17.481Z,16.10
2019-05-19T02:41:49.968Z,16.10
2019-05-19T02:44:21.338Z,16.10
2019-05-19T02:46:54.673Z,16.20
2019-05-19T02:49:27.346Z,16.20
2019-05-19T02:51:59.529Z,16.30
2019-05-19T02:54:32.257Z,16.20
2019-05-19T02:57:03.602Z,16.20
2019-05-19T02:59:35.354Z,16.20
2019-05-19T03:02:11.175Z,16.30
2019-05-19T03:04:41.661Z,16.30
2019-05-19T03:07:12.000Z,16.30
2019-05-19T03:09:44.355Z,16.30
2019-05-19T03:12:14.314Z,16.30
2019-05-19T03:14:45.963Z,16.30
2019-05-19T03:17:16.146Z,16.40
2019-05-19T03:19:46.596Z,16.30
2019-05-19T03:22:16.880Z,16.30
2019-05-19T03:24:47.222Z,16.30
2019-05-19T03:27:17.475Z,16.20
2019-05-19T03:29:52.678Z,16.20
2019-05-19T03:32:29.517Z,16.20
2019-05-19T03:34:59.663Z,16.30
2019-05-19T03:37:29.919Z,16.30
2019-05-19T03:40:01.797Z,16.30
2019-05-19T03:42:32.335Z,16.30
2019-05-19T03:45:02.596Z,16.40
2019-05-19T03:47:32.880Z,16.40
2019-05-19T03:50:03.175Z,16.50
2019-05-19T03:52:33.576Z,16.50
2019-05-19T03:55:03.826Z,16.40
2019-05-19T03:57:34.167Z,16.30
2019-05-19T04:00:04.953Z,16.40
2019-05-19T04:02:35.504Z,16.40
2019-05-19T04:05:06.592Z,16.40
2019-05-19T04:07:36.849Z,16.50
2019-05-19T04:10:07.618Z,16.50
2019-05-19T04:12:37.882Z,16.60
2019-05-19T04:15:08.391Z,16.60
2019-05-19T04:17:38.651Z,16.70
2019-05-19T04:20:09.643Z,16.80
2019-05-19T04:22:39.893Z,16.90
2019-05-19T04:25:10.285Z,16.90
2019-05-19T04:27:41.698Z,17.00
2019-05-19T04:30:12.868Z,17.00
2019-05-19T04:32:43.130Z,17.10
2019-05-19T04:35:13.931Z,17.20
2019-05-19T04:37:44.367Z,17.30
2019-05-19T04:40:14.956Z,17.20
2019-05-19T04:42:45.330Z,17.10
2019-05-19T04:45:15.647Z,17.20
2019-05-19T04:47:45.974Z,17.20
2019-05-19T04:50:16.428Z,17.30
2019-05-19T04:52:46.706Z,17.40
2019-05-19T04:55:17.006Z,17.50
2019-05-19T04:57:48.604Z,17.50
2019-05-19T05:00:19.159Z,17.50
2019-05-19T05:02:50.799Z,17.50
2019-05-19T05:05:21.031Z,17.40
2019-05-19T05:07:51.219Z,17.60
2019-05-19T05:10:22.530Z,17.70
2019-05-19T05:12:52.865Z,17.80
2019-05-19T05:15:23.080Z,17.90
2019-05-19T05:17:53.255Z,17.90
2019-05-19T05:20:23.492Z,17.90
2019-05-19T05:22:54.013Z,17.90
2019-05-19T05:25:24.263Z,17.90
2019-05-19T05:27:54.486Z,17.90
2019-05-19T05:30:24.958Z,17.90
2019-05-19T05:32:55.652Z,18.00
2019-05-19T05:35:25.914Z,18.10
2019-05-19T05:37:56.145Z,18.20
2019-05-19T05:40:26.288Z,18.20
2019-05-19T05:42:56.561Z,18.40
2019-05-19T05:45:26.831Z,18.40
2019-05-19T05:47:57.308Z,18.60
2019-05-19T05:50:28.240Z,18.50
2019-05-19T05:52:58.487Z,18.60
2019-05-19T05:55:28.758Z,18.70
2019-05-19T05:57:59.032Z,18.70
2019-05-19T06:00:29.326Z,18.70
2019-05-19T06:02:59.579Z,18.80
2019-05-19T06:05:29.872Z,18.70
2019-05-19T06:08:00.162Z,18.80
2019-05-19T06:10:30.404Z,18.70
2019-05-19T06:13:02.412Z,18.80
2019-05-19T06:15:32.608Z,18.80
2019-05-19T06:18:05.979Z,18.90
2019-05-19T06:20:36.349Z,18.80
2019-05-19T06:23:10.798Z,18.80
2019-05-19T06:25:41.049Z,18.90
2019-05-19T06:28:11.564Z,19.00
2019-05-19T06:30:45.460Z,19.10
2019-05-19T06:33:15.722Z,19.20
2019-05-19T06:35:46.091Z,19.30
2019-05-19T06:38:17.522Z,19.30
2019-05-19T06:40:47.786Z,19.40
2019-05-19T06:43:18.070Z,19.30
2019-05-19T06:45:48.302Z,19.20
2019-05-19T06:48:18.626Z,19.20
2019-05-19T06:50:49.260Z,19.00
2019-05-19T06:53:19.494Z,18.90
2019-05-19T06:55:49.667Z,18.90
2019-05-19T06:58:20.515Z,19.00
2019-05-19T07:00:50.734Z,19.00
2019-05-19T07:03:20.970Z,19.10
2019-05-19T07:05:51.518Z,19.10
2019-05-19T07:08:21.924Z,19.30
2019-05-19T07:10:52.558Z,19.20
2019-05-19T07:13:22.822Z,19.30
2019-05-19T07:15:53.620Z,19.60
2019-05-19T07:18:23.884Z,19.80
2019-05-19T07:20:54.199Z,19.90
2019-05-19T07:23:28.198Z,20.10
2019-05-19T07:25:57.430Z,19.80
2019-05-19T07:28:29.409Z,19.90
2019-05-19T07:30:59.720Z,20.00
2019-05-19T07:33:32.018Z,20.20
2019-05-19T07:36:02.286Z,20.20
2019-05-19T07:38:32.598Z,20.40
2019-05-19T07:41:03.203Z,20.60
2019-05-19T07:43:33.457Z,20.60
2019-05-19T07:46:03.744Z,21.00
2019-05-19T07:48:34.055Z,21.10
2019-05-19T07:51:04.736Z,21.20
2019-05-19T07:53:42.667Z,21.30
2019-05-19T07:56:07.085Z,21.60
2019-05-19T07:58:38.483Z,21.80
2019-05-19T08:01:08.801Z,21.60
2019-05-19T08:03:39.114Z,21.80
2019-05-19T08:06:09.330Z,22.20
2019-05-19T08:08:39.975Z,22.30
2019-05-19T08:11:10.311Z,22.00
2019-05-19T08:13:41.008Z,21.80
2019-05-19T08:16:11.541Z,22.00
2019-05-19T08:18:41.979Z,22.30
2019-05-19T08:21:12.235Z,22.60
2019-05-19T08:23:58.521Z,22.80
2019-05-19T08:26:14.707Z,22.90
2019-05-19T08:28:44.946Z,23.10
2019-05-19T08:31:15.660Z,23.10
2019-05-19T08:33:46.025Z,22.80
2019-05-19T08:36:16.783Z,22.30
2019-05-19T08:38:48.541Z,22.30
2019-05-19T08:41:22.575Z,22.20
2019-05-19T08:43:53.529Z,22.30
2019-05-19T08:46:24.127Z,22.40
2019-05-19T08:48:58.208Z,22.40
2019-05-19T08:51:28.270Z,22.30
2019-05-19T08:54:06.942Z,22.20
2019-05-19T08:56:30.930Z,22.30
2019-05-19T08:59:01.279Z,22.20
2019-05-19T09:01:31.556Z,22.20
2019-05-19T09:04:01.795Z,22.00
2019-05-19T09:06:32.047Z,22.10
2019-05-19T09:09:05.014Z,22.20
2019-05-19T09:11:35.358Z,22.60
2019-05-19T09:14:05.744Z,22.70
2019-05-19T09:16:36.043Z,23.00
2019-05-19T09:19:06.295Z,23.60
2019-05-19T09:21:39.401Z,23.50
2019-05-19T09:24:09.829Z,23.80
2019-05-19T09:26:40.214Z,23.50
2019-05-19T09:29:11.062Z,23.40
2019-05-19T09:31:41.588Z,23.10
2019-05-19T09:34:12.093Z,23.20
2019-05-19T09:36:42.799Z,23.30
2019-05-19T09:39:13.251Z,23.00
2019-05-19T09:41:43.587Z,22.80
2019-05-19T09:44:14.063Z,23.00
2019-05-19T09:46:45.571Z,22.90
2019-05-19T09:49:34.654Z,22.90
2019-05-19T09:52:06.738Z,22.70
2019-05-19T09:54:44.629Z,22.60
2019-05-19T09:57:09.307Z,22.30
2019-05-19T09:59:39.627Z,22.30
2019-05-19T10:02:09.802Z,22.40
2019-05-19T10:04:40.268Z,22.70
2019-05-19T10:07:10.985Z,22.60
2019-05-19T10:09:59.843Z,22.50
2019-05-19T10:12:31.218Z,22.40
2019-05-19T10:15:02.589Z,22.60
2019-05-19T10:17:34.588Z,22.40
2019-05-19T10:20:07.227Z,22.60
2019-05-19T10:22:37.644Z,22.50
2019-05-19T10:25:21.557Z,22.70
2019-05-19T10:27:41.670Z,23.40
2019-05-19T10:30:13.065Z,23.60
2019-05-19T10:32:43.340Z,23.60
2019-05-19T10:35:13.638Z,23.30
2019-05-19T10:37:44.508Z,23.40
2019-05-19T10:40:15.516Z,23.60
2019-05-19T10:42:46.151Z,23.60
2019-05-19T10:45:17.203Z,24.00
2019-05-19T10:47:47.869Z,23.90
2019-05-19T10:50:18.225Z,23.80
2019-05-19T10:52:48.927Z,23.70
2019-05-19T10:55:19.518Z,23.60
2019-05-19T10:57:50.840Z,23.50
2019-05-19T11:00:21.671Z,23.80
2019-05-19T11:02:52.245Z,23.80
2019-05-19T11:05:22.474Z,24.10
2019-05-19T11:07:52.841Z,24.60
2019-05-19T11:10:23.128Z,24.70
2019-05-19T11:12:53.378Z,25.00
2019-05-19T11:15:23.690Z,25.20
2019-05-19T11:17:54.140Z,25.50
2019-05-19T11:20:24.560Z,25.40
2019-05-19T11:22:56.325Z,25.10
2019-05-19T11:25:33.900Z,24.60
2019-05-19T11:27:58.560Z,24.70
2019-05-19T11:30:28.912Z,24.90
2019-05-19T11:32:59.174Z,24.70
2019-05-19T11:35:29.438Z,24.50
2019-05-19T11:37:59.716Z,24.40
2019-05-19T11:40:30.166Z,24.30
2019-05-19T11:43:00.447Z,24.40
2019-05-19T11:45:31.297Z,24.30
2019-05-19T11:48:01.543Z,25.10
2019-05-19T11:50:31.799Z,25.10
2019-05-19T11:53:02.072Z,24.80
2019-05-19T11:55:32.326Z,24.80
2019-05-19T11:58:02.701Z,24.80
2019-05-19T12:00:34.046Z,24.60
2019-05-19T12:03:07.077Z,23.90
2019-05-19T12:05:37.473Z,23.60
2019-05-19T12:08:08.143Z,23.30
2019-05-19T12:10:38.531Z,22.70
2019-05-19T12:13:08.821Z,22.20
2019-05-19T12:15:39.066Z,21.80
2019-05-19T12:18:09.306Z,21.90
2019-05-19T12:20:39.556Z,21.90
2019-05-19T12:23:09.898Z,22.10
2019-05-19T12:25:40.594Z,22.40
2019-05-19T12:28:11.171Z,22.40
2019-05-19T12:30:42.080Z,22.80
2019-05-19T12:33:12.493Z,23.20
2019-05-19T12:35:42.828Z,23.40
2019-05-19T12:38:13.083Z,23.60
2019-05-19T12:40:43.349Z,23.50
2019-05-19T12:43:13.627Z,23.80
2019-05-19T12:45:44.894Z,23.70
2019-05-19T12:48:15.138Z,23.70
2019-05-19T12:50:45.415Z,23.50
2019-05-19T12:53:15.804Z,24.00
2019-05-19T12:55:46.055Z,24.00
2019-05-19T12:58:16.313Z,23.90
2019-05-19T13:00:46.651Z,23.70
2019-05-19T13:03:18.770Z,24.00
2019-05-19T13:05:49.027Z,24.20
2019-05-19T13:08:19.587Z,24.40
2019-05-19T13:10:50.129Z,24.00
2019-05-19T13:13:20.998Z,24.30
2019-05-19T13:15:57.413Z,24.20
2019-05-19T13:18:28.193Z,24.40
2019-05-19T13:20:59.327Z,24.30
2019-05-19T13:23:29.855Z,24.40
2019-05-19T13:26:05.607Z,24.60
2019-05-19T13:28:41.373Z,24.70
2019-05-19T13:31:30.236Z,24.80
2019-05-19T13:34:00.903Z,24.70
2019-05-19T13:36:31.199Z,24.70
2019-05-19T13:39:05.578Z,24.90
2019-05-19T13:41:41.210Z,25.00
2019-05-19T13:44:11.523Z,24.40
2019-05-19T13:46:42.392Z,24.40
2019-05-19T13:49:13.765Z,24.50
2019-05-19T13:51:44.056Z,24.30
2019-05-19T13:54:15.719Z,24.30
2019-05-19T13:56:45.963Z,24.30
2019-05-19T13:59:16.256Z,24.10
2019-05-19T14:01:46.478Z,24.00
2019-05-19T14:04:16.760Z,23.90
2019-05-19T14:06:47.266Z,24.10
2019-05-19T14:09:17.597Z,24.00
2019-05-19T14:11:47.824Z,24.00
2019-05-19T14:14:18.331Z,23.90
2019-05-19T14:16:48.534Z,23.80
2019-05-19T14:19:18.948Z,23.80
2019-05-19T14:21:49.251Z,23.80
2019-05-19T14:24:19.982Z,23.60
2019-05-19T14:26:51.479Z,23.80
2019-05-19T14:29:21.798Z,23.70
2019-05-19T14:31:52.236Z,23.90
2019-05-19T14:34:22.525Z,23.80
2019-05-19T14:36:53.055Z,23.80
2019-05-19T14:39:23.317Z,23.90
2019-05-19T14:41:57.482Z,23.70
2019-05-19T14:44:28.682Z,23.80
2019-05-19T14:46:59.029Z,23.80
2019-05-19T14:49:45.731Z,23.70
2019-05-19T14:52:16.054Z,23.60
2019-05-19T14:54:46.978Z,23.70
2019-05-19T14:57:17.802Z,23.80
2019-05-19T14:59:48.219Z,24.00
2019-05-19T15:02:20.011Z,24.10
2019-05-19T15:04:51.702Z,24.20
2019-05-19T15:07:23.476Z,24.10
2019-05-19T15:09:54.262Z,24.00
2019-05-19T15:12:24.966Z,23.90
2019-05-19T15:14:56.904Z,23.80
2019-05-19T15:17:27.127Z,23.70
2019-05-19T15:19:57.494Z,23.60
2019-05-19T15:22:28.242Z,23.50
2019-05-19T15:24:58.949Z,23.70
2019-05-19T15:27:32.188Z,23.80
2019-05-19T15:30:12.512Z,23.80
2019-05-19T15:32:35.208Z,23.90
2019-05-19T15:35:07.109Z,24.00
2019-05-19T15:37:40.447Z,24.00
2019-05-19T15:40:11.267Z,24.10
2019-05-19T15:42:41.592Z,24.20
2019-05-19T15:45:12.250Z,24.40
2019-05-19T15:47:42.570Z,24.70
2019-05-19T15:50:13.301Z,24.70
2019-05-19T15:52:43.725Z,24.70
2019-05-19T15:55:14.259Z,24.70
2019-05-19T15:57:44.444Z,24.70
2019-05-19T16:00:16.170Z,25.00
2019-05-19T16:02:46.541Z,25.40
2019-05-19T16:05:16.920Z,26.50
2019-05-19T16:07:47.173Z,27.30
2019-05-19T16:10:17.455Z,27.60
2019-05-19T16:12:47.682Z,28.00
2019-05-19T16:15:18.258Z,27.90
2019-05-19T16:17:48.489Z,27.50
2019-05-19T16:20:18.893Z,26.50
2019-05-19T16:22:49.143Z,25.50
2019-05-19T16:25:19.489Z,25.00
2019-05-19T16:27:49.861Z,25.20
2019-05-19T16:30:20.695Z,25.60
2019-05-19T16:32:51.271Z,25.60
2019-05-19T16:35:21.680Z,25.30
2019-05-19T16:37:52.521Z,25.00
2019-05-19T16:40:22.824Z,24.70
2019-05-19T16:42:53.092Z,24.40
2019-05-19T16:45:23.437Z,24.00
2019-05-19T16:47:53.774Z,23.90
2019-05-19T16:50:24.031Z,23.70
2019-05-19T16:52:54.454Z,23.60
2019-05-19T16:55:29.751Z,23.50
2019-05-19T16:58:00.090Z,23.50
2019-05-19T17:00:30.684Z,23.40
2019-05-19T17:03:00.935Z,23.30
2019-05-19T17:05:31.358Z,23.20
2019-05-19T17:08:01.632Z,23.10
2019-05-19T17:10:32.199Z,23.30
2019-05-19T17:13:02.544Z,23.30
2019-05-19T17:15:33.216Z,23.30
2019-05-19T17:18:03.517Z,23.20
2019-05-19T17:20:34.855Z,23.10
2019-05-19T17:23:05.308Z,23.00
2019-05-19T17:25:35.593Z,22.90
2019-05-19T17:28:05.848Z,22.60
2019-05-19T17:30:36.542Z,22.40
2019-05-19T17:33:06.811Z,22.30
2019-05-19T17:35:37.484Z,22.10
2019-05-19T17:38:07.867Z,21.90
2019-05-19T17:40:38.440Z,21.90
2019-05-19T17:43:08.790Z,21.80
2019-05-19T17:45:39.046Z,21.80
2019-05-19T17:48:25.389Z,21.60
2019-05-19T17:50:42.370Z,21.60
2019-05-19T17:53:12.968Z,21.40
2019-05-19T17:55:45.391Z,21.40
2019-05-19T17:58:16.197Z,21.30
2019-05-19T18:00:46.503Z,21.10
2019-05-19T18:03:16.837Z,21.00
2019-05-19T18:05:47.257Z,20.90
2019-05-19T18:08:17.659Z,20.90
2019-05-19T18:10:48.153Z,20.80
2019-05-19T18:13:18.479Z,20.60
2019-05-19T18:15:48.959Z,20.60
2019-05-19T18:18:19.323Z,20.50
2019-05-19T18:20:49.632Z,20.40
2019-05-19T18:23:19.992Z,20.30
2019-05-19T18:25:50.654Z,20.30
2019-05-19T18:28:21.001Z,20.20
2019-05-19T18:30:51.399Z,20.10
2019-05-19T18:33:24.715Z,19.90
2019-05-19T18:35:55.054Z,19.90
2019-05-19T18:38:25.304Z,19.80
2019-05-19T18:40:55.660Z,19.70
2019-05-19T18:43:25.919Z,19.70
2019-05-19T18:45:56.332Z,19.70
2019-05-19T18:48:26.608Z,19.60
2019-05-19T18:50:57.792Z,19.60
2019-05-19T18:53:28.331Z,19.50
2019-05-19T18:55:59.990Z,19.40
2019-05-19T18:58:30.311Z,19.50
2019-05-19T19:01:00.587Z,19.50
2019-05-19T19:03:30.901Z,19.50
2019-05-19T19:06:01.336Z,19.40
2019-05-19T19:08:31.580Z,19.40
2019-05-19T19:11:02.451Z,19.30
2019-05-19T19:13:32.682Z,19.30
2019-05-19T19:16:03.150Z,19.20
2019-05-19T19:18:33.734Z,19.20
2019-05-19T19:21:03.920Z,19.20
2019-05-19T19:23:34.584Z,19.10
2019-05-19T19:26:05.061Z,19.10
2019-05-19T19:28:35.414Z,19.00
2019-05-19T19:31:05.718Z,19.00
2019-05-19T19:33:36.027Z,18.90
2019-05-19T19:36:06.520Z,18.90
2019-05-19T19:38:36.814Z,18.80
2019-05-19T19:41:07.082Z,18.80
2019-05-19T19:43:37.373Z,18.70
2019-05-19T19:46:07.686Z,18.60
2019-05-19T19:48:38.556Z,18.60
2019-05-19T19:51:08.832Z,18.50
2019-05-19T19:53:39.932Z,18.40
2019-05-19T19:56:11.308Z,18.40
2019-05-19T19:58:42.216Z,18.50
2019-05-19T20:01:12.568Z,18.50
2019-05-19T20:03:43.340Z,18.50
2019-05-19T20:06:13.642Z,18.50
2019-05-19T20:08:43.993Z,18.50
2019-05-19T20:11:14.359Z,18.50
2019-05-19T20:13:45.385Z,18.50
2019-05-19T20:16:15.916Z,18.50
2019-05-19T20:18:46.195Z,18.50
2019-05-19T20:21:16.682Z,18.50
2019-05-19T20:23:46.974Z,18.50
2019-05-19T20:26:17.251Z,18.50
2019-05-19T20:28:47.587Z,18.50
2019-05-19T20:31:17.893Z,18.40
2019-05-19T20:33:48.203Z,18.50
2019-05-19T20:36:18.527Z,18.40
2019-05-19T20:38:48.745Z,18.40
2019-05-19T20:41:19.072Z,18.40
2019-05-19T20:43:49.354Z,18.40
2019-05-19T20:46:19.831Z,18.40
2019-05-19T20:48:50.132Z,18.40
2019-05-19T20:51:20.411Z,18.50
2019-05-19T20:53:53.266Z,18.40
2019-05-19T20:56:22.637Z,18.40
2019-05-19T20:58:52.953Z,18.40
2019-05-19T21:01:24.233Z,18.30
2019-05-19T21:03:54.660Z,18.30
2019-05-19T21:06:24.994Z,18.30
2019-05-19T21:08:55.329Z,18.40
2019-05-19T21:11:25.637Z,18.40
2019-05-19T21:13:55.934Z,18.40
2019-05-19T21:16:26.321Z,18.40
2019-05-19T21:19:10.272Z,18.40
2019-05-19T21:21:40.583Z,18.40
2019-05-19T21:24:10.874Z,18.30
2019-05-19T21:26:41.124Z,18.30
2019-05-19T21:29:11.629Z,18.20
2019-05-19T21:31:43.284Z,18.20
2019-05-19T21:34:14.282Z,18.10
2019-05-19T21:36:44.561Z,18.10
2019-05-19T21:39:15.918Z,18.00
2019-05-19T21:41:46.098Z,18.10
2019-05-19T21:44:16.462Z,18.10
2019-05-19T21:46:46.666Z,18.10
2019-05-19T21:49:17.017Z,18.00
2019-05-19T21:51:47.298Z,18.00
2019-05-19T21:54:17.539Z,18.00
2019-05-19T21:56:48.234Z,17.90
2019-05-19T21:59:18.542Z,17.80
2019-05-19T22:01:49.232Z,17.80
2019-05-19T22:04:19.470Z,17.80
2019-05-19T22:06:55.690Z,17.70
2019-05-19T22:09:25.983Z,17.70
2019-05-19T22:11:56.312Z,17.70
2019-05-19T22:14:26.582Z,17.70
2019-05-19T22:16:57.258Z,17.70
2019-05-19T22:19:27.686Z,17.60
2019-05-19T22:21:58.528Z,17.60
2019-05-19T22:24:28.884Z,17.60
2019-05-19T22:26:59.358Z,17.70
2019-05-19T22:29:29.986Z,17.70
2019-05-19T22:32:00.384Z,17.60
2019-05-19T22:34:30.844Z,17.60
2019-05-19T22:37:01.535Z,17.60
2019-05-19T22:39:31.776Z,17.60
2019-05-19T22:42:02.233Z,17.60
2019-05-19T22:44:32.513Z,17.50
2019-05-19T22:47:02.883Z,17.50
2019-05-19T22:49:33.195Z,17.50
2019-05-19T22:52:03.447Z,17.50
2019-05-19T22:54:33.886Z,17.60
2019-05-19T22:57:04.193Z,17.50
2019-05-19T22:59:34.494Z,17.60
2019-05-19T23:02:04.854Z,17.60
2019-05-19T23:04:35.098Z,17.50
2019-05-19T23:07:05.342Z,17.50
2019-05-19T23:09:35.931Z,17.50
2019-05-19T23:12:06.220Z,17.40
2019-05-19T23:14:36.691Z,17.40
2019-05-19T23:17:07.042Z,17.40
2019-05-19T23:19:37.486Z,17.40
2019-05-19T23:22:08.104Z,17.40
2019-05-19T23:24:38.834Z,17.40
2019-05-19T23:27:09.117Z,17.30
2019-05-19T23:29:39.591Z,17.30
2019-05-19T23:32:09.996Z,17.30
2019-05-19T23:34:40.286Z,17.30
2019-05-19T23:37:13.609Z,17.40
2019-05-19T23:39:43.858Z,17.40
2019-05-19T23:42:14.193Z,17.40
2019-05-19T23:44:44.490Z,17.40
2019-05-19T23:47:14.736Z,17.40
2019-05-19T23:49:45.023Z,17.40
2019-05-19T23:52:15.373Z,17.40
2019-05-19T23:54:46.743Z,17.30
2019-05-19T23:57:17.036Z,17.30
2019-05-19T23:59:47.285Z,17.30
